CheckWX is a tool to help pilots better visualize weather data.  It is not intended as a substitute for an official pre-flight weather briefing.

04:38:54 UTC

KGRI TAF
Central Nebraska Regional Airport
Grand Island, Nebraska, USA
KGRI 222345Z 2300/2324 13010KT P6SM BKN200 FM230500 12009KT P6SM VCSH BKN060 OVC090 FM231200 11011KT 6SM -RA BR SCT009 OVC040 FM231400 11013KT 6SM -RA BR SCT008 OVC024 FM231600 11015G22KT 6SM -RA BR SCT004 OVC008 FM231900 11014G21KT 4SM -SHRA BR SCT003 OVC006

Mar-23@
00:00 UTC

Mar-23 @ 00:00 UTC

Mar-23@
05:00 UTC

Mar-23 @ 05:00 UTC

KGRI 222345Z 2300/2324 13010KT P6SM BKN200
Wind
  • 130° at 10 KTS
Cloud Levels
  • Broken at 20,000' AGL

Mar-23@
05:00 UTC

Mar-23 @ 05:00 UTC

Mar-23@
12:00 UTC

Mar-23 @ 12:00 UTC

FM230500 12009KT P6SM VCSH BKN060 OVC090

From

From Standard forecast or significant change

Wind
  • 120° at 9 KTS
Cloud Levels
  • Broken at 6,000' AGL
  • Overcast at 9,000' AGL

Mar-23@
12:00 UTC

Mar-23 @ 12:00 UTC

Mar-23@
14:00 UTC

Mar-23 @ 14:00 UTC

FM231200 11011KT 6SM -RA BR SCT009 OVC040

From

From Standard forecast or significant change

Wind
  • 110° at 11 KTS
Conditions
Light Rain, Mist
Cloud Levels
  • Scattered at 900' AGL
  • Overcast at 4,000' AGL

Mar-23@
14:00 UTC

Mar-23 @ 14:00 UTC

Mar-23@
16:00 UTC

Mar-23 @ 16:00 UTC

FM231400 11013KT 6SM -RA BR SCT008 OVC024

From

From Standard forecast or significant change

Wind
  • 110° at 13 KTS
Conditions
Light Rain, Mist
Cloud Levels
  • Scattered at 800' AGL
  • Overcast at 2,400' AGL

Mar-23@
16:00 UTC

Mar-23 @ 16:00 UTC

Mar-23@
19:00 UTC

Mar-23 @ 19:00 UTC

FM231600 11015G22KT 6SM -RA BR SCT004 OVC008

From

From Standard forecast or significant change

Wind
  • 110° at 15 KTS
  • {Gusting to 22 KTS
Conditions
Light Rain, Mist
Cloud Levels
  • Scattered at 400' AGL
  • Overcast at 800' AGL

Mar-23@
19:00 UTC

Mar-23 @ 19:00 UTC

Mar-24@
00:00 UTC

Mar-24 @ 00:00 UTC

FM231900 11014G21KT 4SM -SHRA BR SCT003 OVC006

From

From Standard forecast or significant change

Wind
  • 110° at 14 KTS
  • {Gusting to 21 KTS
Conditions
Light Rain, Mist
Cloud Levels
  • Scattered at 300' AGL
  • Overcast at 600' AGL